Princeton's Hourly Summary for Friday, March 17, 2017
Hour Temp
(f)
RH
(%)
Solar Rad.
(MJ/m2)
Rainfall
(in)
Wind
(mph)
3/17/2017 12:00 AM 65 80 0 0 9.24
3/17/2017 1:00 AM 64 82 0 0 9.09
3/17/2017 2:00 AM 63 85 0 0 9.12
3/17/2017 3:00 AM 63 88 0 0 9.34
3/17/2017 4:00 AM 64 83 0 0 8.63
3/17/2017 5:00 AM 65 81 0 0 9.19
3/17/2017 6:00 AM 66 79 0 0 9.13
3/17/2017 7:00 AM 66 78 0 0 8.98
3/17/2017 8:00 AM 66 75 0.01 0 10.32
3/17/2017 9:00 AM 67 74 0.21 0 10.54
3/17/2017 10:00 AM 68 74 0.58 0 11.05
3/17/2017 11:00 AM 68 72 0.84 0 11.32
3/17/2017 12:00 PM 70 70 0.94 0 11.42
3/17/2017 1:00 PM 71 69 0.98 0 10.35
3/17/2017 2:00 PM 71 69 0.71 0 9.52
3/17/2017 3:00 PM 72 68 1.26 0 11.11
3/17/2017 4:00 PM 72 67 1.12 0 10.44
3/17/2017 5:00 PM 72 67 0.84 0 10.17
3/17/2017 6:00 PM 72 68 0.49 0 9.06
3/17/2017 7:00 PM 73 66 0.24 0 5.32
3/17/2017 8:00 PM 72 65 0.02 0 2.29
3/17/2017 9:00 PM 71 67 0 0 1.31
3/17/2017 10:00 PM 71 67 0 0 1.2
3/17/2017 11:00 PM 70 68 0 0 0.26
Data Summary 68 73 8.24 0.00 8.27